Time;durP1;ratioP1;P1;durP2;ratioP2;P2;SDS_P1;SDS_P2;PMS_P1;PMS_P2;Temp;Humidity;BMP_temperature;BMP_pressure;BME280_temperature;BME280_humidity;BME280_pressure;Samples;Min_cycle;Max_cycle;Signal;HPM_P1;HPM_P2
2022/08/24 00:00:38;;;;;;;4.75;3.22;;;;;;;20.03;52.88;96879.06;4879730;29;20092;-74
2022/08/24 00:03:10;;;;;;;3.00;2.53;;;;;;;20.03;53.42;96871.94;4880124;29;20080;-75
2022/08/24 00:05:38;;;;;;;;;;;;;;;20.05;54.02;96872.53;4879210;29;20053;-74
2022/08/24 00:08:05;;;;;;;3.85;2.65;;;;;;;20.09;55.22;96868.34;4880297;29;19978;-74
2022/08/24 00:10:34;;;;;;;3.10;2.80;;;;;;;20.12;54.12;96875.03;4880074;29;20444;-74
2022/08/24 00:13:02;;;;;;;3.20;2.90;;;;;;;20.08;52.94;96874.69;4880130;29;20099;-74
2022/08/24 00:15:29;;;;;;;4.63;3.10;;;;;;;19.98;52.17;96866.53;4879640;29;20135;-74
2022/08/24 00:17:57;;;;;;;2.83;2.63;;;;;;;19.94;55.94;96868.03;4879540;29;20077;-74
2022/08/24 00:20:25;;;;;;;2.90;2.60;;;;;;;19.95;55.76;96872.31;4879028;29;20558;-74
2022/08/24 00:22:53;;;;;;;4.50;2.95;;;;;;;19.91;54.08;96877.25;4879556;29;20083;-74
2022/08/24 00:25:20;;;;;;;3.08;2.78;;;;;;;19.86;55.14;96873.72;4879591;29;20085;-74
2022/08/24 00:27:49;;;;;;;3.55;3.13;;;;;;;19.83;55.18;96874.16;4879652;29;20095;-74
2022/08/24 00:30:19;;;;;;;3.22;2.88;;;;;;;19.75;54.19;96873.50;4878635;29;20084;-74
2022/08/24 00:32:48;;;;;;;4.13;3.38;;;;;;;19.67;52.85;96865.88;4879537;29;20059;-74
2022/08/24 00:35:18;;;;;;;4.47;2.60;;;;;;;19.65;55.61;96869.81;4879161;29;20113;-74
2022/08/24 00:37:47;;;;;;;3.78;2.53;;;;;;;19.62;55.29;96868.44;4879450;29;20095;-74
2022/08/24 00:40:20;;;;;;;3.20;2.70;;;;;;;19.61;57.90;96866.81;4879156;29;20045;-75
2022/08/24 00:42:50;;;;;;;4.30;2.90;;;;;;;19.61;57.35;96864.16;4878764;29;20080;-74
2022/08/24 00:45:19;;;;;;;3.28;2.97;;;;;;;19.63;57.53;96864.75;4879138;29;20113;-74
2022/08/24 00:47:53;;;;;;;3.25;2.95;;;;;;;19.62;54.33;96865.78;4879207;29;20107;-74
2022/08/24 00:50:24;;;;;;;4.10;3.33;;;;;;;19.54;54.52;96871.44;4879016;29;20149;-74
2022/08/24 00:52:57;;;;;;;3.13;2.83;;;;;;;19.46;54.32;96869.97;4879016;29;20076;-74
2022/08/24 00:55:30;;;;;;;6.25;3.15;;;;;;;19.34;53.11;96862.00;4878813;29;20474;-74
2022/08/24 00:58:03;;;;;;;4.80;2.60;;;;;;;19.27;52.91;96866.63;4879053;29;20088;-74
2022/08/24 01:00:36;;;;;;;2.72;2.50;;;;;;;19.28;54.59;96862.94;4881939;29;20065;-74
2022/08/24 01:03:05;;;;;;;2.75;2.55;;;;;;;19.30;54.99;96868.78;4894743;29;20088;-74
2022/08/24 01:05:35;;;;;;;3.15;2.88;;;;;;;19.26;53.93;96867.66;4888460;29;20057;-74
2022/08/24 01:08:05;;;;;;;4.68;2.50;;;;;;;19.30;57.14;96870.63;4892525;29;20075;-74
2022/08/24 01:10:37;;;;;;;4.35;3.03;;;;;;;19.26;54.58;96867.66;4892392;29;20056;-74
2022/08/24 01:13:08;;;;;;;3.75;3.05;;;;;;;19.17;53.77;96865.59;4880548;29;20049;-74
2022/08/24 01:15:38;;;;;;;2.90;2.60;;;;;;;19.11;53.46;96876.06;4878783;29;20076;-74
2022/08/24 01:21:06;;;;;;;4.28;2.10;;;;;;;19.04;52.21;96866.59;4878841;29;20053;-74
2022/08/24 01:23:39;;;;;;;5.15;1.85;;;;;;;19.02;53.03;96868.69;4878901;29;20084;-74
2022/08/24 01:26:08;;;;;;;2.58;1.83;;;;;;;19.00;51.57;96865.44;4879048;29;20091;-74
2022/08/24 01:28:39;;;;;;;2.85;1.83;;;;;;;18.97;51.71;96864.06;4878409;29;20053;-74
2022/08/24 01:31:08;;;;;;;3.58;1.95;;;;;;;18.95;51.56;96860.84;4878526;29;20113;-74
2022/08/24 01:33:35;;;;;;;1.73;1.60;;;;;;;18.95;52.24;96858.22;4878160;29;20394;-75
2022/08/24 01:36:09;;;;;;;1.45;1.35;;;;;;;18.99;53.59;96864.66;4878836;29;20088;-74
2022/08/24 01:38:38;;;;;;;2.20;1.60;;;;;;;18.98;53.03;96856.94;4878442;29;20089;-74
2022/08/24 01:41:06;;;;;;;1.80;1.70;;;;;;;18.94;51.83;96854.78;4877747;29;20477;-74
2022/08/24 01:43:34;;;;;;;2.53;1.75;;;;;;;18.92;52.95;96848.91;4877914;29;20056;-74
2022/08/24 01:46:04;;;;;;;3.05;1.92;;;;;;;18.94;52.19;96843.41;4878412;29;20091;-74
2022/08/24 01:48:31;;;;;;;3.42;1.90;;;;;;;18.95;52.12;96852.94;4878385;29;20060;-74
2022/08/24 01:50:59;;;;;;;4.85;2.38;;;;;;;18.93;52.11;96850.53;4877674;29;20080;-74
2022/08/24 01:53:27;;;;;;;1.75;1.65;;;;;;;18.89;52.31;96859.94;4878126;29;20080;-74
2022/08/24 01:55:56;;;;;;;1.80;1.70;;;;;;;18.83;52.35;96860.84;4878450;29;20089;-74
2022/08/24 01:58:23;;;;;;;3.78;2.10;;;;;;;18.77;52.25;96863.56;4878428;29;20088;-74
2022/08/24 02:00:51;;;;;;;3.28;1.90;;;;;;;18.73;52.91;96860.56;4878134;29;20112;-73
2022/08/24 02:03:19;;;;;;;3.10;2.00;;;;;;;18.69;52.84;96859.41;4877947;29;20053;-74
2022/08/24 02:05:53;;;;;;;3.03;2.50;;;;;;;18.67;53.12;96858.81;4878358;29;20072;-73
2022/08/24 02:08:21;;;;;;;2.70;2.50;;;;;;;18.63;53.15;96857.66;4877837;29;20059;-74
2022/08/24 02:10:49;;;;;;;3.65;2.25;;;;;;;18.57;53.26;96864.69;4877512;29;20133;-74
2022/08/24 02:13:27;;;;;;;2.75;2.55;;;;;;;18.53;53.44;96860.88;4877888;29;20073;-74
2022/08/24 02:15:55;;;;;;;2.78;2.35;;;;;;;18.48;53.47;96858.09;4878239;29;20053;-74
2022/08/24 02:18:22;;;;;;;2.15;1.92;;;;;;;18.47;53.58;96873.13;4877551;29;20578;-74
2022/08/24 02:20:50;;;;;;;2.55;2.20;;;;;;;18.47;53.70;96869.69;4877404;29;20087;-74
2022/08/24 02:23:19;;;;;;;3.20;2.20;;;;;;;18.43;53.69;96861.44;4877421;29;20057;-74
2022/08/24 02:25:47;;;;;;;2.47;2.28;;;;;;;18.41;53.67;96860.84;4878224;29;20053;-74
2022/08/24 02:28:14;;;;;;;2.15;1.98;;;;;;;18.39;53.87;96862.06;4878482;29;20079;-74
2022/08/24 02:30:43;;;;;;;1.67;1.48;;;;;;;18.38;54.39;96858.63;4881703;29;20140;-75
2022/08/24 02:33:11;;;;;;;4.15;2.25;;;;;;;18.39;54.22;96865.53;4881352;29;20059;-74
2022/08/24 02:35:39;;;;;;;1.83;1.73;;;;;;;18.41;56.05;96860.84;4878358;29;20084;-74
2022/08/24 02:38:07;;;;;;;3.03;2.15;;;;;;;18.51;59.72;96874.28;4881608;29;20113;-74
2022/08/24 02:40:36;;;;;;;4.45;2.60;;;;;;;18.57;56.93;96862.03;4881525;29;20140;-74
2022/08/24 02:43:04;;;;;;;5.68;2.58;;;;;;;18.54;56.54;96857.19;4881422;29;20520;-74
2022/08/24 02:45:32;;;;;;;3.20;2.47;;;;;;;18.45;55.11;96861.97;4881180;29;20068;-74
2022/08/24 02:48:01;;;;;;;2.63;2.10;;;;;;;18.37;54.80;96862.31;4881342;29;20132;-74
2022/08/24 02:50:28;;;;;;;5.57;2.58;;;;;;;18.33;55.18;96861.16;4880667;29;20092;-74
2022/08/24 02:52:56;;;;;;;3.60;2.42;;;;;;;18.28;54.93;96858.41;4881454;29;20065;-74
2022/08/24 02:55:24;;;;;;;1.80;1.70;;;;;;;18.22;54.85;96869.84;4881075;29;20080;-74
2022/08/24 02:57:51;;;;;;;2.50;2.30;;;;;;;18.15;55.16;96863.81;4881094;29;20077;-74
2022/08/24 03:00:21;;;;;;;2.75;2.08;;;;;;;18.06;55.36;96864.16;4880559;29;20089;-74
2022/08/24 03:02:48;;;;;;;4.75;2.08;;;;;;;18.02;55.46;96862.19;4880724;29;20162;-74
2022/08/24 03:05:17;;;;;;;4.57;2.42;;;;;;;17.98;55.35;96864.44;4881284;29;20057;-74
2022/08/24 03:07:45;;;;;;;2.80;1.70;;;;;;;17.91;55.60;96861.91;4880987;29;20084;-74
2022/08/24 03:10:13;;;;;;;2.17;1.92;;;;;;;17.83;55.54;96862.19;4880915;29;20504;-74
2022/08/24 03:12:41;;;;;;;2.53;1.90;;;;;;;17.76;56.06;96864.06;4880433;29;20084;-74
2022/08/24 03:15:10;;;;;;;4.20;2.40;;;;;;;17.70;56.34;96865.75;4880546;29;20053;-74
2022/08/24 03:17:39;;;;;;;2.17;1.70;;;;;;;17.70;56.72;96872.88;4881029;29;20139;-74
2022/08/24 03:20:15;;;;;;;2.17;1.92;;;;;;;17.67;56.51;96868.03;4880536;29;20508;-74
2022/08/24 03:22:45;;;;;;;5.53;2.15;;;;;;;17.60;56.71;96862.84;4881004;29;20076;-74
2022/08/24 03:25:13;;;;;;;2.10;2.00;;;;;;;17.55;56.94;96865.31;4880349;29;20136;-74
2022/08/24 03:27:42;;;;;;;5.05;2.08;;;;;;;17.49;56.88;96869.66;4880541;29;20073;-74
2022/08/24 03:30:12;;;;;;;3.50;2.17;;;;;;;17.44;57.22;96869.47;4880108;29;20084;-74
2022/08/24 03:32:41;;;;;;;4.70;2.60;;;;;;;17.39;57.30;96863.25;4880960;29;20110;-74
2022/08/24 03:35:10;;;;;;;3.38;2.65;;;;;;;17.36;57.38;96867.16;4880527;29;20076;-73
2022/08/24 03:37:38;;;;;;;2.95;2.65;;;;;;;17.35;57.59;96868.16;4880557;29;20520;-74
2022/08/24 03:40:10;;;;;;;2.38;2.17;;;;;;;17.32;57.69;96870.41;4879799;29;20044;-74
2022/08/24 03:42:51;;;;;;;4.40;2.15;;;;;;;17.27;57.71;96869.25;4883318;29;20076;-74
2022/08/24 03:45:20;;;;;;;3.05;2.20;;;;;;;17.25;57.91;96866.03;4895336;29;20057;-73
2022/08/24 03:47:48;;;;;;;2.80;2.30;;;;;;;17.22;57.96;96866.44;4890109;29;20137;-74
2022/08/24 03:50:15;;;;;;;3.35;2.83;;;;;;;17.18;58.04;96870.53;4880901;29;20105;-74
2022/08/24 03:52:43;;;;;;;4.40;2.70;;;;;;;17.22;58.55;96877.00;4880213;29;20080;-74
2022/08/24 03:55:12;;;;;;;3.00;2.70;;;;;;;17.25;57.90;96879.22;4880484;29;20084;-74
2022/08/24 03:57:40;;;;;;;2.55;2.30;;;;;;;17.22;57.77;96874.34;4880400;29;20068;-74
2022/08/24 04:00:11;;;;;;;3.60;2.75;;;;;;;17.21;57.94;96877.22;4879901;29;20056;-74
2022/08/24 04:02:38;;;;;;;3.22;2.30;;;;;;;17.15;57.77;96870.97;4861854;29;20062;-74
2022/08/24 04:05:07;;;;;;;3.42;2.30;;;;;;;17.09;58.13;96882.38;4861739;29;20057;-74
2022/08/24 04:07:34;;;;;;;2.80;1.92;;;;;;;17.15;60.58;96880.72;4861506;29;20114;-74
2022/08/24 04:10:02;;;;;;;2.90;2.47;;;;;;;17.22;60.79;96877.00;4861382;29;20431;-75
2022/08/24 04:12:31;;;;;;;6.32;2.38;;;;;;;17.22;58.59;96870.91;4879570;29;20105;-74
2022/08/24 04:14:58;;;;;;;2.70;2.35;;;;;;;17.12;58.50;96871.44;4880093;29;20136;-74
2022/08/24 04:17:26;;;;;;;3.00;2.70;;;;;;;17.03;58.55;96876.16;4879677;29;20060;-74
2022/08/24 04:19:59;;;;;;;3.78;2.78;;;;;;;16.95;58.77;96870.34;4876078;29;20041;-74
2022/08/24 04:22:29;;;;;;;3.72;2.78;;;;;;;16.85;59.29;96874.25;4896454;29;20144;-74
2022/08/24 04:24:57;;;;;;;3.65;3.35;;;;;;;16.79;59.54;96871.66;4898876;29;20076;-74
2022/08/24 04:27:25;;;;;;;2.63;2.40;;;;;;;16.75;59.94;96879.19;4891350;29;20048;-74
2022/08/24 04:29:54;;;;;;;3.95;2.92;;;;;;;16.70;60.20;96879.00;4890900;29;20049;-75
2022/08/24 04:32:21;;;;;;;2.85;2.53;;;;;;;16.67;60.17;96876.81;4914929;23;20045;-72
2022/08/24 04:34:49;;;;;;;3.63;2.40;;;;;;;16.66;60.46;96878.66;4898559;29;20151;-72
2022/08/24 04:37:17;;;;;;;4.32;2.58;;;;;;;16.65;60.69;96873.59;4898588;29;20494;-72
2022/08/24 04:39:52;;;;;;;3.33;2.55;;;;;;;16.67;60.52;96879.44;4898605;29;20063;-73
2022/08/24 04:42:20;;;;;;;3.58;2.60;;;;;;;16.67;60.54;96880.25;4898108;29;20531;-72
2022/08/24 04:44:49;;;;;;;5.28;3.17;;;;;;;16.65;60.81;96882.28;4898459;29;20091;-75
2022/08/24 04:47:18;;;;;;;8.95;3.20;;;;;;;16.62;60.96;96882.72;4897932;29;20051;-76
2022/08/24 04:49:45;;;;;;;3.78;2.53;;;;;;;16.60;60.90;96879.50;4898700;29;20596;-75
2022/08/24 04:52:13;;;;;;;3.05;2.67;;;;;;;16.62;61.01;96881.91;4899146;29;20087;-75
2022/08/24 04:54:41;;;;;;;3.65;3.03;;;;;;;16.65;61.07;96889.38;4898533;29;20088;-75
2022/08/24 04:57:08;;;;;;;4.85;2.47;;;;;;;16.66;61.01;96893.63;4898740;29;20049;-74
2022/08/24 04:59:42;;;;;;;4.55;3.35;;;;;;;16.69;61.04;96896.66;4897925;29;20423;-75
2022/08/24 05:02:10;;;;;;;3.47;2.70;;;;;;;16.72;61.06;96895.41;4897801;29;20507;-75
2022/08/24 05:04:39;;;;;;;6.40;3.25;;;;;;;16.73;60.92;96890.97;4898844;29;20136;-75
2022/08/24 05:07:07;;;;;;;5.05;3.30;;;;;;;16.74;61.06;96901.28;4897816;29;20112;-75
2022/08/24 05:09:34;;;;;;;3.30;3.00;;;;;;;16.76;60.99;96904.50;4897871;29;20048;-75
2022/08/24 05:12:02;;;;;;;26.75;16.48;;;;;;;16.78;61.38;96899.81;4898433;29;20411;-75
2022/08/24 05:14:30;;;;;;;13.00;7.22;;;;;;;16.85;63.13;96908.50;4908549;29;20049;-75
2022/08/24 05:16:58;;;;;;;6.78;4.47;;;;;;;16.95;64.22;96908.06;4914269;29;20060;-75
2022/08/24 05:19:25;;;;;;;3.72;3.33;;;;;;;17.04;64.40;96917.31;4916564;29;20538;-72
2022/08/24 05:21:54;;;;;;;4.50;3.78;;;;;;;17.10;63.58;96910.38;4898148;29;20515;-74
2022/08/24 05:24:22;;;;;;;6.20;3.17;;;;;;;17.07;61.46;96913.41;4897489;29;20553;-74
2022/08/24 05:26:51;;;;;;;5.82;3.17;;;;;;;17.04;62.11;96914.66;4898122;29;20140;-74
2022/08/24 05:29:20;;;;;;;6.35;3.42;;;;;;;17.06;61.71;96917.88;4897130;29;20048;-74
2022/08/24 05:31:47;;;;;;;3.53;2.83;;;;;;;17.09;61.44;96908.75;4897397;29;20079;-72
2022/08/24 05:34:15;;;;;;;4.60;3.13;;;;;;;17.09;61.29;96909.53;4897736;29;20354;-72
2022/08/24 05:36:43;;;;;;;5.88;3.33;;;;;;;17.10;61.26;96913.00;4897794;29;20151;-72
2022/08/24 05:39:14;;;;;;;5.43;3.20;;;;;;;17.12;61.33;96918.88;4897481;29;20073;-73
2022/08/24 05:41:43;;;;;;;3.97;3.53;;;;;;;17.14;61.19;96914.16;4896862;29;20440;-73
2022/08/24 05:44:12;;;;;;;5.90;3.65;;;;;;;17.18;61.12;96919.81;4917195;29;20088;-72
2022/08/24 05:46:40;;;;;;;7.20;4.47;;;;;;;17.24;64.23;96914.50;4920837;29;20037;-77
2022/08/24 05:49:08;;;;;;;5.88;4.95;;;;;;;17.34;63.72;96905.28;4907268;29;20064;-72
2022/08/24 05:51:35;;;;;;;8.52;4.88;;;;;;;17.43;63.32;96909.28;4898515;29;20422;-72
2022/08/24 05:54:03;;;;;;;6.20;4.30;;;;;;;17.51;64.35;96914.25;4902376;29;20605;-73
2022/08/24 05:56:32;;;;;;;7.20;5.03;;;;;;;17.58;63.97;96917.66;4900221;29;20523;-72
2022/08/24 05:59:01;;;;;;;6.18;4.57;;;;;;;17.65;64.35;96917.56;4901590;29;20084;-72
2022/08/24 06:01:28;;;;;;;5.47;4.97;;;;;;;17.73;64.71;96919.91;4892376;29;20085;-72
2022/08/24 06:03:56;;;;;;;6.95;5.50;;;;;;;17.81;63.18;96926.75;4895762;29;20439;-73
2022/08/24 06:06:25;;;;;;;6.63;5.85;;;;;;;17.83;62.73;96925.53;4897206;29;20204;-72
2022/08/24 06:08:55;;;;;;;5.70;4.43;;;;;;;17.85;61.21;96927.94;4896148;29;20260;-72
2022/08/24 06:11:25;;;;;;;6.57;3.95;;;;;;;17.87;61.49;96928.53;4896862;29;20084;-73
2022/08/24 06:14:01;;;;;;;5.47;3.50;;;;;;;17.92;61.99;96929.47;4897193;29;20063;-72
2022/08/24 06:16:35;;;;;;;6.60;3.72;;;;;;;18.03;63.42;96935.84;4888851;29;20044;-73
2022/08/24 06:19:03;;;;;;;5.20;3.80;;;;;;;18.10;61.82;96928.69;4896659;29;20199;-72
2022/08/24 06:21:31;;;;;;;8.38;3.60;;;;;;;18.20;61.42;96930.00;4896518;29;20076;-73
2022/08/24 06:23:59;;;;;;;4.03;3.70;;;;;;;18.28;61.47;96925.22;4896992;29;20567;-72
2022/08/24 06:29:18;;;;;;;5.60;3.95;;;;;;;18.50;61.03;96930.81;4896786;29;20084;-72
2022/08/24 06:31:48;;;;;;;5.90;4.25;;;;;;;18.62;60.65;96937.97;4896610;29;20049;-72
2022/08/24 06:34:22;;;;;;;3.95;3.22;;;;;;;18.73;60.48;96934.56;4897192;29;20048;-72
2022/08/24 06:36:50;;;;;;;4.80;3.78;;;;;;;18.84;60.17;96931.16;4897082;29;20095;-72
2022/08/24 06:39:18;;;;;;;3.63;3.15;;;;;;;18.94;61.43;96934.06;4896983;29;20048;-72
2022/08/24 06:41:46;;;;;;;4.80;3.58;;;;;;;19.07;60.41;96932.28;4896322;29;20096;-73
2022/08/24 06:44:13;;;;;;;7.90;3.90;;;;;;;19.18;59.95;96934.13;4897228;29;20105;-72
2022/08/24 06:46:42;;;;;;;6.38;3.67;;;;;;;19.31;60.47;96935.75;4896623;29;20499;-73
2022/08/24 06:49:10;;;;;;;4.32;3.90;;;;;;;19.42;60.17;96931.50;4894843;29;20052;-74
2022/08/24 06:51:38;;;;;;;5.72;3.60;;;;;;;19.53;59.43;96933.34;4903228;29;20057;-72
2022/08/24 06:54:05;;;;;;;3.58;3.25;;;;;;;19.64;60.70;96935.16;4897067;29;20057;-73
2022/08/24 06:56:35;;;;;;;4.65;4.25;;;;;;;19.75;60.71;96937.03;4897171;29;20097;-74
2022/08/24 06:59:03;;;;;;;7.00;4.25;;;;;;;19.88;59.50;96945.78;4899390;29;20087;-72
2022/08/24 07:01:31;;;;;;;4.78;4.38;;;;;;;19.99;60.97;96947.59;4896240;29;20139;-73
2022/08/24 07:04:00;;;;;;;6.07;5.00;;;;;;;20.08;59.54;96948.84;4896395;29;20063;-73
2022/08/24 07:06:28;;;;;;;6.28;4.82;;;;;;;20.16;58.57;96951.13;4905139;29;20056;-74
2022/08/24 07:08:56;;;;;;;10.18;4.68;;;;;;;20.25;57.89;96956.06;4900726;29;20143;-73
2022/08/24 07:11:24;;;;;;;6.70;4.97;;;;;;;20.34;57.66;96950.16;4894910;29;20091;-74
2022/08/24 07:13:51;;;;;;;6.68;4.78;;;;;;;20.49;58.03;96957.59;4896653;29;20053;-73
2022/08/24 07:16:21;;;;;;;7.78;4.38;;;;;;;20.61;57.57;96964.72;4899392;29;20085;-73
2022/08/24 07:18:49;;;;;;;5.10;4.30;;;;;;;20.70;57.61;96963.28;4898634;29;20052;-74
2022/08/24 07:21:19;;;;;;;6.85;3.90;;;;;;;20.81;56.64;96956.31;4899668;29;20056;-73
2022/08/24 07:23:47;;;;;;;5.97;4.00;;;;;;;20.92;55.95;96960.75;4899828;29;20068;-73
2022/08/24 07:26:19;;;;;;;5.32;3.80;;;;;;;21.06;55.70;96959.44;4899686;29;20511;-73
2022/08/24 07:28:49;;;;;;;6.15;3.35;;;;;;;21.22;55.29;96963.13;4899571;29;20538;-73
2022/08/24 07:31:16;;;;;;;3.00;2.75;;;;;;;21.37;54.86;96963.38;4899225;29;20048;-72
2022/08/24 07:33:44;;;;;;;2.92;2.63;;;;;;;21.53;54.51;96958.31;4899322;29;20140;-75
2022/08/24 07:36:13;;;;;;;5.80;3.05;;;;;;;21.67;54.16;96956.94;4899376;29;20224;-77
2022/08/24 07:38:52;;;;;;;4.18;3.20;;;;;;;21.85;53.16;96960.38;4907704;29;20524;-76
2022/08/24 07:41:20;;;;;;;3.70;3.05;;;;;;;21.99;52.73;96957.09;4922803;29;20075;-76
2022/08/24 07:44:08;;;;;;;2.97;2.67;;;;;;;22.17;52.48;96960.50;4916141;29;20048;-76
2022/08/24 07:46:36;;;;;;;10.38;3.05;;;;;;;22.31;52.39;96959.13;4920876;29;20533;-76
2022/08/24 07:49:04;;;;;;;7.45;2.72;;;;;;;22.46;51.75;96963.03;4906437;29;20412;-76
2022/08/24 07:51:47;;;;;;;3.45;2.30;;;;;;;22.60;51.78;96959.72;4898277;29;20062;-75
2022/08/24 07:54:16;;;;;;;5.75;2.65;;;;;;;22.78;51.51;96958.59;4898608;29;20516;-75
2022/08/24 07:56:43;;;;;;;5.80;2.88;;;;;;;22.94;51.32;96961.41;4899247;29;20056;-76
2022/08/24 07:59:11;;;;;;;2.80;2.60;;;;;;;23.10;51.21;96962.34;4898930;29;20503;-76
2022/08/24 08:01:40;;;;;;;4.15;2.63;;;;;;;23.23;50.29;96970.72;4897811;29;20060;-79
2022/08/24 08:07:18;;;;;;;2.13;1.90;;;;;;;23.56;50.13;96970.69;5769723;23;20055;-80
2022/08/24 08:10:32;;;;;;;4.35;2.45;;;;;;;23.75;49.91;96971.94;5067450;23;20061;-82
2022/08/24 08:16:23;;;;;;;10.98;3.13;;;;;;;24.16;49.01;96974.81;4921023;29;20049;-80
2022/08/24 09:13:10;;;;;;;4.13;1.80;;;;;;;27.56;40.02;96944.47;3186018;23;20079;-80
2022/08/24 09:18:32;;;;;;;1.73;1.45;;;;;;;27.74;39.48;96953.66;4921770;29;20044;-79
2022/08/24 09:27:44;;;;;;;2.20;2.00;;;;;;;28.05;39.38;96939.94;4913455;29;20032;-83
2022/08/24 09:33:27;;;;;;;1.88;1.38;;;;;;;28.17;37.42;96940.34;5050013;23;20137;-83
2022/08/24 09:36:07;;;;;;;3.95;1.10;;;;;;;28.24;36.13;96951.53;4911769;29;20082;-82
2022/08/24 09:38:56;;;;;;;1.35;1.25;;;;;;;28.32;36.35;96945.53;4899509;29;20435;-80
2022/08/24 09:41:51;;;;;;;3.92;1.08;;;;;;;28.39;35.71;96949.75;4880361;29;20144;-82
2022/08/24 09:44:54;;;;;;;2.00;1.10;;;;;;;28.44;35.98;96953.16;4903306;29;20079;-83
2022/08/24 09:47:50;;;;;;;;;;;;;;;28.53;36.10;96939.91;4905734;29;20056;-82
2022/08/24 10:00:53;;;;;;;;;;;;;;;28.80;35.59;96949.19;5491963;23;20078;-79
2022/08/24 10:24:15;;;;;;;1.98;1.38;;;;;;;28.90;33.28;96930.25;5038514;23;20038;-81
2022/08/24 10:30:16;;;;;;;1.30;1.20;;;;;;;29.02;34.11;96929.81;5088727;23;20036;-81
2022/08/24 10:33:11;;;;;;;3.08;1.40;;;;;;;29.08;33.50;96929.44;4983991;23;20053;-83
2022/08/24 10:35:55;;;;;;;2.92;1.60;;;;;;;29.10;33.59;96938.06;4900594;29;20080;-86
2022/08/24 10:41:56;;;;;;;1.65;1.20;;;;;;;29.11;33.95;96928.88;4920525;29;20041;-88
2022/08/24 10:44:42;;;;;;;1.60;1.20;;;;;;;29.15;34.68;96929.91;4921394;29;20037;-87
2022/08/24 10:47:18;;;;;;;2.60;1.27;;;;;;;29.22;35.00;96934.91;4920221;29;20059;-88
2022/08/24 10:50:19;;;;;;;2.55;1.55;;;;;;;29.24;34.45;96921.97;4922552;29;20063;-86
2022/08/24 10:53:08;;;;;;;3.13;2.00;;;;;;;29.26;34.78;96929.75;4903351;29;20507;-84
2022/08/24 10:55:37;;;;;;;1.80;1.15;;;;;;;29.24;34.96;96926.53;4906724;29;20049;-84
2022/08/24 10:58:27;;;;;;;2.58;1.73;;;;;;;29.23;35.57;96924.94;4911387;29;20707;-86
2022/08/24 11:00:55;;;;;;;3.38;1.80;;;;;;;29.26;35.27;96933.22;4910063;29;20071;-86
2022/08/24 11:03:25;;;;;;;1.83;1.70;;;;;;;29.26;35.56;96919.78;4916898;29;20056;-87
2022/08/24 11:05:58;;;;;;;2.15;1.85;;;;;;;29.31;35.63;96917.00;4917700;29;20056;-81
2022/08/24 11:08:28;;;;;;;4.97;2.00;;;;;;;29.31;36.04;96929.66;4906789;29;20053;-82
2022/08/24 11:11:11;;;;;;;1.98;1.73;;;;;;;29.23;36.52;96922.25;4904389;29;20084;-82
2022/08/24 11:13:52;;;;;;;4.88;2.20;;;;;;;29.18;37.31;96928.50;4882955;29;20596;-81
2022/08/24 11:16:25;;;;;;;3.45;2.15;;;;;;;29.16;37.07;96938.75;4883878;29;20084;-82
2022/08/24 11:18:56;;;;;;;7.78;2.20;;;;;;;29.08;37.88;96928.63;4904101;29;20056;-82
2022/08/24 11:21:47;;;;;;;4.97;2.08;;;;;;;29.06;38.16;96928.94;4908061;29;20080;-82
2022/08/24 11:24:29;;;;;;;5.20;2.13;;;;;;;29.08;37.63;96929.44;4901699;29;20087;-82
2022/08/24 11:27:02;;;;;;;2.50;1.90;;;;;;;29.16;37.95;96909.19;4904716;29;20063;-85
2022/08/24 11:29:58;;;;;;;2.20;1.77;;;;;;;29.24;37.59;96921.97;4905406;29;20467;-86
2022/08/24 11:32:33;;;;;;;1.95;1.70;;;;;;;29.22;37.11;96918.78;4901179;29;20063;-83
2022/08/24 11:35:03;;;;;;;3.53;1.95;;;;;;;29.24;36.85;96916.59;4900859;29;20051;-83
2022/08/24 11:37:33;;;;;;;4.90;2.15;;;;;;;29.25;36.62;96922.75;4901134;29;20049;-83
2022/08/24 11:40:03;;;;;;;3.83;1.73;;;;;;;29.27;37.07;96917.88;4882097;29;20105;-83
2022/08/24 11:42:42;;;;;;;1.92;1.73;;;;;;;29.36;37.18;96929.53;4890893;29;20100;-84
2022/08/24 11:45:16;;;;;;;2.30;1.90;;;;;;;29.48;36.88;96921.03;4900782;29;20566;-84
2022/08/24 11:48:01;;;;;;;1.92;1.60;;;;;;;29.58;36.32;96912.75;4901111;29;20140;-83
2022/08/24 11:50:39;;;;;;;2.33;1.60;;;;;;;29.67;36.31;96929.81;4900679;29;20052;-82
2022/08/24 11:53:20;;;;;;;2.35;1.60;;;;;;;29.70;36.65;96918.50;4900442;29;20518;-82
2022/08/24 11:56:00;;;;;;;2.45;1.75;;;;;;;29.64;35.39;96921.53;4904981;29;20062;-84
2022/08/24 11:58:40;;;;;;;2.78;1.73;;;;;;;29.50;36.20;96916.94;4905909;29;20055;-84
2022/08/24 12:01:17;;;;;;;3.78;1.40;;;;;;;29.48;36.24;96921.03;4902193;29;20108;-82
2022/08/24 12:04:00;;;;;;;3.25;1.70;;;;;;;29.48;36.28;96915.66;4902321;29;20084;-83
2022/08/24 12:06:43;;;;;;;2.70;1.60;;;;;;;29.53;36.38;96913.66;4903037;29;20147;-81
2022/08/24 12:09:23;;;;;;;3.65;1.60;;;;;;;29.51;36.31;96921.22;4905510;29;20062;-87
2022/08/24 12:11:59;;;;;;;2.33;1.63;;;;;;;29.44;36.25;96912.75;4905048;29;20431;-86
2022/08/24 12:14:33;;;;;;;2.03;1.50;;;;;;;29.35;36.47;96912.63;4905299;29;20063;-88
2022/08/24 12:17:12;;;;;;;2.72;1.38;;;;;;;29.24;36.75;96907.75;4921857;29;20067;-85
2022/08/24 12:19:46;;;;;;;2.88;1.45;;;;;;;29.15;37.22;96905.72;4903422;29;20059;-87
2022/08/24 12:22:15;;;;;;;1.63;1.52;;;;;;;29.15;37.05;96903.03;4910723;29;20492;-85
2022/08/24 12:24:46;;;;;;;1.63;1.50;;;;;;;29.09;36.86;96904.22;4910333;29;20087;-87
2022/08/24 12:27:19;;;;;;;1.70;1.60;;;;;;;28.99;36.75;96906.22;4905070;29;20139;-84
2022/08/24 12:29:56;;;;;;;4.32;1.55;;;;;;;28.87;37.20;96907.47;4904941;29;20098;-83
2022/08/24 12:32:33;;;;;;;1.73;1.25;;;;;;;28.76;37.09;96912.22;4903470;29;20080;-87
2022/08/24 12:35:05;;;;;;;5.07;2.00;;;;;;;28.69;37.80;96900.25;4905225;29;20056;-85
2022/08/24 12:37:37;;;;;;;1.50;1.25;;;;;;;28.66;37.35;96901.63;4911174;29;20065;-86
2022/08/24 12:40:09;;;;;;;;;;;;;;;28.67;37.54;96905.91;4911976;29;20053;-84
2022/08/24 12:42:43;;;;;;;1.65;1.55;;;;;;;28.64;37.56;96903.78;4912180;29;19912;-87
2022/08/24 12:45:18;;;;;;;1.23;0.98;;;;;;;28.66;37.41;96896.25;4912454;29;20525;-84
2022/08/24 12:47:54;;;;;;;1.42;1.27;;;;;;;28.69;36.93;96894.88;4905626;29;20104;-85
2022/08/24 12:50:39;;;;;;;1.70;1.25;;;;;;;28.68;36.78;96899.44;4905054;29;20104;-84
2022/08/24 12:53:25;;;;;;;1.63;1.38;;;;;;;28.73;37.05;96895.88;4903547;29;20059;-86
2022/08/24 12:56:42;;;;;;;3.00;1.20;;;;;;;28.75;37.00;96889.16;4903178;29;20528;-85
2022/08/24 12:59:18;;;;;;;1.33;1.05;;;;;;;28.75;36.52;96881.09;4845981;29;20114;-85
2022/08/24 13:02:00;;;;;;;3.05;1.38;;;;;;;28.73;36.49;96891.31;4901286;29;20108;-85
2022/08/24 13:04:39;;;;;;;2.03;1.38;;;;;;;28.68;36.10;96883.34;4903582;29;20060;-85
2022/08/24 13:07:27;;;;;;;4.90;1.27;;;;;;;28.62;36.84;96889.06;4902899;29;20052;-85
2022/08/24 13:10:10;;;;;;;1.40;1.13;;;;;;;28.51;37.05;96889.25;4902942;29;20057;-86
2022/08/24 13:12:55;;;;;;;1.95;1.30;;;;;;;28.46;37.40;96891.94;4903213;29;20056;-86
2022/08/24 13:15:57;;;;;;;1.17;1.08;;;;;;;28.39;37.41;96883.47;4903459;29;20100;-85
2022/08/24 13:19:09;;;;;;;1.40;1.20;;;;;;;28.41;37.64;96883.19;4905274;29;20111;-86
2022/08/24 13:21:43;;;;;;;4.60;1.73;;;;;;;28.45;37.62;96876.94;4905242;29;20056;-85
2022/08/24 13:24:49;;;;;;;1.95;1.30;;;;;;;28.57;37.85;96873.06;4904418;29;20063;-84
2022/08/24 13:27:49;;;;;;;1.30;1.20;;;;;;;28.69;38.01;96863.47;4881375;29;20056;-82
2022/08/24 13:30:25;;;;;;;2.65;1.25;;;;;;;28.74;37.33;96876.81;4898032;29;20136;-83
2022/08/24 13:33:02;;;;;;;1.02;0.93;;;;;;;28.71;36.98;96861.28;4899017;29;20083;-84
2022/08/24 13:35:35;;;;;;;4.43;0.73;;;;;;;28.69;36.82;96868.03;4899587;29;20072;-83
2022/08/24 13:38:33;;;;;;;0.60;0.60;;;;;;;28.66;36.64;96864.03;4901455;29;20075;-83
2022/08/24 13:41:05;;;;;;;2.03;1.02;;;;;;;28.65;37.67;96859.78;4880187;29;20061;-83
2022/08/24 13:43:38;;;;;;;2.13;0.98;;;;;;;28.66;37.95;96855.19;4880567;29;20056;-82
2022/08/24 13:46:19;;;;;;;1.00;1.00;;;;;;;28.67;37.29;96854.91;4889109;29;20092;-83
2022/08/24 13:48:55;;;;;;;2.53;0.90;;;;;;;28.64;36.91;96860.84;4898866;29;20061;-83
2022/08/24 13:51:38;;;;;;;1.35;1.00;;;;;;;28.62;37.23;96854.19;4898398;29;20135;-82
2022/08/24 13:54:22;;;;;;;4.13;1.27;;;;;;;28.58;37.76;96853.97;4899540;29;20563;-83
2022/08/24 13:57:04;;;;;;;1.10;1.00;;;;;;;28.51;37.59;96857.03;4899608;29;20058;-83